Hit Tracker is now ESPN Home Run Tracker! Hit Tracker founder Greg Rybarczyk is now collaborating with the ESPN Stats & Information Group to continue tracking all MLB home runs, and helping baseball fans know "How Far It Really Went!™" Please credit any information on this site to ESPN Stats & Information Group. For more information and analysis on home runs, please contact founder Greg Rybarczyk. E-Mail ESPN Home Run Tracker
Main Page | Ballparks | Park Overlays | Glossary | Highlight Homers | Feedback | Bio | 3 Types of HR's | AAA Home Run Derby Last Updated: August 20, 2014, 8:32 am PST
Welcome to the ESPN Home Run Tracker! Check out the ESPN MLB Scoreboard throughout the 2014 season! Contact us at grybar@hittrackeronline.com.
Season:
Ballpark detail for Angel Stadium
Ballpark # of Home Runs HR per game Avg.
True
Distance
Avg.
Speed
Off
Bat
Avg.
Std.
Dist.
Angel Stadium 104 1.62 400.6 102.7 397.8

Scatter Plot of Home Runs Angel Stadium
 Overlay Ballpark:
Without range rings   With range rings

2014 Season Home Runs for Angel Stadium
Click headers to sort
Date Video Path Hitter Hitter
Team
Pitcher Pitcher
Team
INN Ballpark Type/
Luck
True
Dist.
Speed
Off
Bat
Elev.
Angle
Horiz.
Angle
Apex Impact Due To: Std.
Dist.
#
Parks
Wind ^ Temp. Alt.
04/30/14 Video View Conger, Hank LAA McAllister, Zach CLE 2 Angel Stadiu... JE 377 102.4 30.2 70.3 109 -24 4 1 396 30
04/29/14 Video View Santana, Carlos CLE Weaver, Jered LAA 6 Angel Stadiu... PL 384 99.9 28.0 80.2 100 -14 1 0 396 25
06/06/14 Video View Dunn, Adam CHW Frieri, Ernesto LAA 9 Angel Stadiu... PL 396 105.8 32.1 67.4 118 -8 -2 1 406 30
05/15/14 Video View Trout, Mike LAA Boxberger, Brad TB 9 Angel Stadiu... ND 433 110.6 26.3 108.8 89 -2 1 0 433 30
07/05/14 Video View Pujols, Albert LAA Bass, Anthony HOU 7 Angel Stadiu... PL 433 107.2 27.4 99.9 103 -2 0 0 435 30
04/01/14 Video View Miller, Brad SEA Kohn, Michael LAA 9 Angel Stadiu... PL 427 112.3 20.8 80.3 63 -1 -1 0 428 30
07/05/14 Video View Carter, Chris HOU Santiago, Hector LAA 3 Angel Stadiu... JE 403 100.1 27.5 87.1 93 -1 1 0 403 7
07/05/14 Video View Freese, David LAA Bass, Anthony HOU 7 Angel Stadiu... PL 406 102.2 25.6 84.0 85 -1 0 0 407 14
07/05/14 Video View Cron, C.J. LAA Zeid, Josh HOU 7 Angel Stadiu... PL 410 101.8 29.7 97.5 107 -1 0 0 410 29
07/19/14 Video View Freese, David LAA Leone, Dominic SEA 12 Angel Stadiu... JE 401 102.6 23.3 94.9 70 -1 -1 0 402 5
07/20/14 Video View Seager, Kyle SEA Skaggs, Tyler LAA 1 Angel Stadiu... ND 413 107.7 25.2 72.0 79 -1 1 1 413 30
05/25/14 Video View Iannetta, Chris LAA Collins, Tim KC 8 Angel Stadiu... PL 371 109.7 22.0 125.9 52 0 0 0 370 29
05/24/14 Video View Trout, Mike LAA Shields, James KC 5 Angel Stadiu... PL 424 106.1 23.2 93.8 77 0 0 0 424 26
05/24/14 Video View Aybar, Erick LAA Shields, James KC 4 Angel Stadiu... JE 362 106.9 22.4 57.0 52 0 0 0 361 23
04/01/14 Video View Ibanez, Raul LAA Ramirez, Erasmo SEA 4 Angel Stadiu... JE 408 102.9 23.9 86.8 74 0 -1 0 409 11
04/02/14 Video View Smoak, Justin SEA Frieri, Ernesto LAA 9 Angel Stadiu... PL 396 103.9 33.4 71.4 124 0 -4 1 399 30
04/02/14 Video View Hart, Corey SEA Frieri, Ernesto LAA 9 Angel Stadiu... PL 361 98.6 33.3 121.3 97 0 -2 1 363 29
04/14/14 Video View Pujols, Albert LAA Chavez, Jesse OAK 3 Angel Stadiu... JE 402 102.8 24.0 97.6 71 0 0 0 401 11
04/16/14 Video View Moss, Brandon OAK Skaggs, Tyler LAA 4 Angel Stadiu... JE 395 109.1 22.6 68.8 61 0 -1 0 395 29
05/02/14 Video View Choo, Shin-Soo TEX Santiago, Hector LAA 6 Angel Stadiu... JE 407 103.0 23.1 90.5 72 0 0 0 407 2
05/02/14 Video View Rios, Alex TEX Santiago, Hector LAA 6 Angel Stadiu... JE 399 100.7 25.9 97.3 80 0 1 0 397 8
05/04/14 Video View Arencibia, J.P. TEX Skaggs, Tyler LAA 3 Angel Stadiu... PL 419 104.7 27.5 102.5 92 0 2 1 417 30
05/04/14 Video View Choice, Michael TEX Jepsen, Kevin LAA 4 Angel Stadiu... ND 443 110.6 23.7 99.4 80 0 1 0 442 30
05/15/14 Video View Guyer, Brandon TB Skaggs, Tyler LAA 7 Angel Stadiu... JE 397 100.7 26.3 80.2 79 0 1 0 395 17
06/10/14 Video View Cowgill, Collin LAA Francis, Jeff OAK 14 Angel Stadiu... JE 380 103.8 25.2 114.1 67 0 -1 0 380 30
06/22/14 Video View Snyder, Brad TEX Smith, Joe LAA 9 Angel Stadiu... PL 426 105.8 23.5 89.4 77 0 0 0 426 26
07/04/14 Video View Trout, Mike LAA Sipp, Tony HOU 9 Angel Stadiu... JE 406 108.1 21.7 101.3 63 0 0 0 406 26
07/21/14 Video View Jones, Adam BAL Shoemaker, Matt LAA 6 Angel Stadiu... ND 443 109.5 25.0 99.3 88 0 0 0 442 30
07/22/14 Video View Trout, Mike LAA Gonzalez, Miguel BAL 8 Angel Stadiu... JE 390 98.3 31.9 82.4 110 0 1 1 389 7
08/09/14 Video View Trout, Mike LAA Buchholz, Clay BOS 8 Angel Stadiu... JE 408 110.1 19.6 82.2 56 0 0 0 408 13
08/10/14 Video View Cespedes, Yoenis BOS Smith, Joe LAA 8 Angel Stadiu... JE 383 110.0 21.6 115.0 54 0 0 0 382 29
08/12/14 Video View Calhoun, Kole LAA Williams, Jerome PHI 6 Angel Stadiu... JE 351 98.9 27.4 56.2 66 0 0 0 351 27
04/13/14 Video View Trout, Mike LAA Colon, Bartolo NYM 1 Angel Stadiu... PL 424 105.1 23.9 89.4 82 1 -1 0 424 26
04/13/14 Video View Ibanez, Raul LAA Colon, Bartolo NYM 1 Angel Stadiu... PL 404 102.4 29.5 77.4 105 1 -4 1 406 29
04/13/14 Video View Stewart, Ian LAA Lannan, John NYM 8 Angel Stadiu... PL 410 102.6 27.0 99.0 90 1 0 1 409 28
04/14/14 Video View Jaso, John OAK Frieri, Ernesto LAA 9 Angel Stadiu... PL 404 102.2 29.7 75.5 100 1 0 0 402 29
04/16/14 Video View Iannetta, Chris LAA Pomeranz, Drew OAK 12 Angel Stadiu... JE 406 100.2 29.9 90.1 106 1 -1 0 406 7
05/18/14 Video View Kiermaier, Kevin TB Morin, Mike LAA 7 Angel Stadiu... JE 367 97.9 32.4 116.4 94 1 0 0 365 28
06/07/14 Video View Trout, Mike LAA Sale, Chris CHW 8 Angel Stadiu... PL 410 102.5 25.4 95.5 82 1 0 0 409 17
06/11/14 Video View Vogt, Stephen OAK Weaver, Jered LAA 6 Angel Stadiu... PL 407 105.8 26.9 69.6 83 1 0 0 406 30
06/20/14 Video View Choice, Michael TEX Morin, Mike LAA 7 Angel Stadiu... PL 409 104.3 24.0 81.5 73 1 0 0 408 20
06/22/14 Video View Calhoun, Kole LAA Darvish, Yu TEX 4 Angel Stadiu... PL 354 101.7 25.9 52.0 60 1 0 0 354 27
06/24/14 Video View Trout, Mike LAA Gibson, Kyle MIN 2 Angel Stadiu... PL 412 103.3 25.3 82.6 81 1 0 0 411 17
06/25/14 Video View Arcia, Oswaldo MIN Richards, Garrett LAA 2 Angel Stadiu... PL 416 105.1 23.4 84.4 74 1 0 0 415 29
07/09/14 Video View Pujols, Albert LAA Loup, Aaron TOR 7 Angel Stadiu... JE 406 101.2 25.4 86.8 78 1 0 0 404 5
07/20/14 Video View Calhoun, Kole LAA Young, Chris SEA 3 Angel Stadiu... PL 375 99.7 31.2 63.2 91 1 1 0 373 29
07/20/14 Video View Trout, Mike LAA Young, Chris SEA 3 Angel Stadiu... ND 440 107.4 26.1 96.8 95 1 1 0 439 30
07/21/14 Video View Jones, Adam BAL Shoemaker, Matt LAA 1 Angel Stadiu... PL 412 105.7 27.5 109.2 87 1 1 0 410 30
08/09/14 Video View Pujols, Albert LAA Workman, Brandon BOS 19 Angel Stadiu... JE 383 97.9 27.7 79.4 83 1 0 0 382 3
04/11/14 Video View Trout, Mike LAA Gee, Dillon NYM 1 Angel Stadiu... ND 435 106.2 26.2 96.5 91 2 -1 0 432 30
04/13/14 Video View Pujols, Albert LAA Colon, Bartolo NYM 1 Angel Stadiu... PL 396 103.3 28.7 111.8 87 2 -1 0 395 30
04/28/14 Video View Santana, Carlos CLE Skaggs, Tyler LAA 4 Angel Stadiu... PL 395 104.8 26.8 114.3 76 2 0 0 393 30
05/04/14 Video View Pujols, Albert LAA Darvish, Yu TEX 1 Angel Stadiu... PL 436 105.6 26.7 93.3 95 2 1 0 433 29
05/16/14 Video View Escobar, Yunel TB Weaver, Jered LAA 5 Angel Stadiu... JE 402 99.4 28.2 93.4 92 2 1 1 399 3
05/18/14 Video View Pujols, Albert LAA Price, David TB 7 Angel Stadiu... PL 380 103.5 26.5 117.8 70 2 0 0 379 30
07/08/14 Video View Reyes, Jose TOR Skaggs, Tyler LAA 7 Angel Stadiu... PL 388 100.3 32.2 108.2 106 2 0 1 386 30
07/26/14 Video View Navarro, Efren LAA Verlander, Justin DET 2 Angel Stadiu... PL 407 101.6 27.8 80.4 89 2 1 0 405 26
05/04/14 Video View Aybar, Erick LAA Darvish, Yu TEX 1 Angel Stadiu... JE 393 98.8 28.0 80.5 85 3 1 0 389 8
05/18/14 Video View Pujols, Albert LAA Price, David TB 1 Angel Stadiu... JE/L 401 99.9 25.7 91.0 76 3 0 1 398 0
05/21/14 Video View Pujols, Albert LAA McHugh, Collin HOU 6 Angel Stadiu... PL 399 102.9 29.7 110.2 94 3 -1 0 398 30
06/24/14 Video View Willingham, Josh MIN Wilson, C.J. LAA 2 Angel Stadiu... JE 400 99.8 33.1 94.4 121 3 0 0 396 4
07/27/14 Video View Freese, David LAA Chamberlain, Joba DET 8 Angel Stadiu... PL 419 103.6 25.6 96.1 79 3 1 1 415 26
05/23/14 Video View Trout, Mike LAA Duffy, Danny KC 3 Angel Stadiu... ND 444 107.7 28.7 98.0 112 4 -1 1 441 30
03/31/14 Video View Trout, Mike LAA Hernandez, Felix SEA 1 Angel Stadiu... PL 403 105.2 25.9 109.7 74 4 -1 0 400 30
04/11/14 Video View d'Arnaud, Travis NYM Skaggs, Tyler LAA 3 Angel Stadiu... JE 402 100.3 27.5 98.4 85 4 -1 0 399 12
04/11/14 Video View Shuck, J.B. LAA Gee, Dillon NYM 6 Angel Stadiu... PL 351 96.4 36.1 60.1 107 4 -2 0 349 28
04/12/14 Video View Cowgill, Collin LAA Niese, Jonathon NYM 6 Angel Stadiu... PL 399 103.1 28.2 109.4 85 4 -1 0 397 30
04/12/14 Video View Recker, Anthony NYM Shoemaker, Matt LAA 13 Angel Stadiu... PL 387 101.7 33.1 113.1 109 4 -3 1 385 30
04/15/14 Video View Calhoun, Kole LAA Straily, Dan OAK 4 Angel Stadiu... PL 404 103.3 28.8 71.2 90 4 -1 0 400 30
06/07/14 Video View Dunn, Adam CHW Shoemaker, Matt LAA 6 Angel Stadiu... PL 409 100.2 29.0 93.4 98 4 0 0 405 6
07/04/14 Video View Singleton, Jon HOU Wilson, C.J. LAA 4 Angel Stadiu... PL 377 100.8 28.7 62.2 76 4 0 0 373 28
07/07/14 Video View Francisco, Juan TOR Shoemaker, Matt LAA 5 Angel Stadiu... PL 419 102.3 30.1 84.4 108 4 0 0 414 25
07/22/14 Video View Schoop, Jonathan BAL Morin, Mike LAA 6 Angel Stadiu... PL 403 99.6 30.0 96.8 101 4 0 0 398 11
04/01/14 Video View Miller, Brad SEA Wilson, C.J. LAA 5 Angel Stadiu... JE 401 99.3 29.8 83.1 97 5 -2 0 397 10
04/12/14 Video View Duda, Lucas NYM Weaver, Jered LAA 2 Angel Stadiu... JE 406 99.7 28.3 93.5 91 5 -1 1 401 5
04/13/14 Video View Conger, Hank LAA Colon, Bartolo NYM 5 Angel Stadiu... JE 382 99.7 29.2 67.9 82 5 0 1 377 25
05/07/14 Video View Jeter, Derek NYY Santiago, Hector LAA 2 Angel Stadiu... JE/L 394 99.3 28.5 101.3 86 5 -1 0 390 19
05/17/14 Video View Green, Grant LAA Gomes, Brandon TB 3 Angel Stadiu... PL 422 102.8 28.5 96.3 98 5 0 0 417 27
06/21/14 Video View Choo, Shin-Soo TEX Jepsen, Kevin LAA 9 Angel Stadiu... PL 409 100.5 31.8 91.2 115 5 -1 0 405 9
06/24/14 Video View Morales, Kendrys MIN Wilson, C.J. LAA 2 Angel Stadiu... PL 371 98.9 33.5 118.8 99 5 0 0 366 30
07/04/14 Video View Carter, Chris HOU Wilson, C.J. LAA 2 Angel Stadiu... ND 432 107.2 29.7 105.9 107 5 1 1 425 30
07/04/14 Video View Pujols, Albert LAA Keuchel, Dallas HOU 4 Angel Stadiu... PL 411 104.1 32.8 106.4 120 5 1 1 405 30
07/09/14 Video View Calhoun, Kole LAA Stroman, Marcus TOR 4 Angel Stadiu... PL 366 100.3 28.4 54.9 71 5 1 0 360 26
08/06/14 Video View Kemp, Matt LAD Shoemaker, Matt LAA 2 Angel Stadiu... PL 423 104.8 30.5 103.2 109 5 0 0 417 30
04/12/14 Video View Iannetta, Chris LAA Niese, Jonathon NYM 5 Angel Stadiu... PL 425 103.7 28.7 97.5 100 6 -2 0 421 29
05/21/14 Video View Springer, George HOU Weaver, Jered LAA 4 Angel Stadiu... JE 397 100.3 30.7 104.9 99 6 -1 0 392 30
06/06/14 Video View Pujols, Albert LAA Carroll, Scott CHW 8 Angel Stadiu... PL 394 100.3 31.1 106.7 99 6 -2 0 389 30
08/08/14 Video View Napoli, Mike BOS Weaver, Jered LAA 5 Angel Stadiu... PL 405 104.5 35.4 102.5 143 6 0 1 399 30
04/12/14 Video View Ibanez, Raul LAA Valverde, Jose NYM 9 Angel Stadiu... PL 400 102.6 31.7 68.8 104 7 -3 1 394 30
05/23/14 Video View Iannetta, Chris LAA Duffy, Danny KC 2 Angel Stadiu... JE/L 394 99.5 33.2 101.5 116 7 -1 0 388 19
06/06/14 Video View Calhoun, Kole LAA Rienzo, Andre CHW 1 Angel Stadiu... PL 401 100.0 29.4 77.9 94 7 -1 0 394 17
06/06/14 Video View De Aza, Alejandro CHW Weaver, Jered LAA 3 Angel Stadiu... PL 390 101.2 28.9 67.6 84 7 -1 0 384 28
06/21/14 Video View Cron, C.J. LAA Martinez, Nick TEX 8 Angel Stadiu... JE 358 96.0 34.3 118.9 96 7 -1 1 351 21
04/15/14 Video View Trout, Mike LAA Doolittle, Sean OAK 9 Angel Stadiu... PL 413 103.1 33.7 97.8 131 8 -3 1 407 25
06/20/14 Video View Cron, C.J. LAA Saunders, Joe TEX 3 Angel Stadiu... JE 390 97.3 31.4 79.4 97 8 0 1 381 1
07/25/14 Video View Cabrera, Miguel DET Skaggs, Tyler LAA 4 Angel Stadiu... PL 386 99.1 34.6 74.4 119 8 0 1 377 18
04/02/14 Video View Zunino, Mike SEA Salas, Fernando LAA 6 Angel Stadiu... JE 391 100.0 33.4 105.8 114 9 -3 0 385 27
04/14/14 Video View Cespedes, Yoenis OAK Santiago, Hector LAA 4 Angel Stadiu... PL 411 100.3 32.2 82.7 111 11 1 0 399 14
07/06/14 Video View Calhoun, Kole LAA Martinez, David HOU 7 Angel Stadiu... PL 409 101.2 31.8 73.9 105 13 3 0 394 26
05/06/14 Video View Roberts, Brian NYY Frieri, Ernesto LAA 9 Angel Stadiu... PL 390 99.9 32.9 67.3 101 14 -2 0 378 29
07/04/14 Video View Springer, George HOU Wilson, C.J. LAA 4 Angel Stadiu... PL/L 403 100.4 35.6 96.4 132 14 1 1 388 1
08/10/14 Video View Trout, Mike LAA De La Rosa, Rubby BOS 8 Angel Stadiu... PL/L 378 99.7 37.5 111.4 128 15 3 1 360 17
03/31/14 Video View Smoak, Justin SEA Jepsen, Kevin LAA 9 Angel Stadiu... PL 392 100.9 34.4 62.8 107 18 -3 0 375 29
06/22/14 Video View Cron, C.J. LAA Darvish, Yu TEX 4 Angel Stadiu... JE/L 377 99.3 37.8 109.0 131 18 1 1 358 13


About HitTracker | Contact Us
© 2006-2009 HitTrackerOnline